Lady Nur — 3FFE2 — position and weather

sailwx.info

Track history (hours):
 
Tides and Currents Weather Stations Pressure Air Temp Water Temp Dewpoint Dewpoint Depression Visibility Wind Speed Wind Dir Waves Ship Positions

Lady Nur

Last reported at 2014-Aug-28 00:04 UTC. Time now 2014-Aug-29 14:24 UTC.
Position N 40°43' E 027°28'.

Length 82 m; draft 5.5 m.

Type: Cargo ship. MMSI: 373237000.

Date/timePositionNaut miles runAvg speedWind from/ knotsBaromVisibWave heightAir tempDewpointWater temp
2014-Aug-28 00:04N 40°43' E 027°28'5 8.6
2014-Aug-27 23:31N 40°45' E 027°33'63 7.7
2014-Aug-27 15:21N 40°58' E 028°55'0 0.0
2014-Aug-27 13:21N 40°58' E 028°55'0 0.0
2014-Aug-27 12:33N 40°58' E 028°55'0 0.0
2014-Aug-27 11:21N 40°58' E 028°55'0 0.0
2014-Aug-27 10:21N 40°58' E 028°55'0 0.0
2014-Aug-27 09:33N 40°58' E 028°55'0 0.0
2014-Aug-27 08:27N 40°58' E 028°55'0 0.0
2014-Aug-27 07:21N 40°58' E 028°55'0 0.0
2014-Aug-27 06:33N 40°58' E 028°55'0 0.0
2014-Aug-27 05:21N 40°58' E 028°55'0 0.0
2014-Aug-27 04:21N 40°58' E 028°55'0 0.0
2014-Aug-27 01:27N 40°58' E 028°55'0 0.0
2014-Aug-27 00:33N 40°58' E 028°55'3 2.1
2014-Aug-26 23:19N 40°59' E 028°58'  
2014-Aug-21 04:33N 40°59' E 029°00'4 4.4
2014-Aug-21 03:34N 40°55' E 029°04'7 6.7
2014-Aug-21 02:33N 40°52' E 029°11'0 0.1
2014-Aug-21 01:31N 40°52' E 029°11'0 0.0
2014-Aug-21 00:31N 40°52' E 029°11'0 0.0
2014-Aug-20 23:19N 40°52' E 029°11'0 0.0
2014-Aug-20 22:31N 40°52' E 029°11'0 0.0
2014-Aug-20 21:31N 40°52' E 029°11'0 0.0
2014-Aug-20 20:31N 40°52' E 029°11'0 0.0
2014-Aug-20 19:31N 40°52' E 029°11'0 0.0
2014-Aug-20 18:13N 40°52' E 029°11'0 0.0
2014-Aug-20 17:25N 40°52' E 029°11'0 0.0
2014-Aug-20 16:25N 40°52' E 029°11'0 0.0
2014-Aug-20 15:31N 40°52' E 029°11'0 0.1
2014-Aug-20 14:31N 40°52' E 029°12'0 0.0
2014-Aug-20 13:31N 40°52' E 029°12'0 0.0
2014-Aug-20 12:19N 40°52' E 029°12'0 0.0
2014-Aug-20 11:31N 40°52' E 029°12'0 0.0
2014-Aug-20 10:19N 40°52' E 029°11'0 0.0
2014-Aug-20 09:13N 40°52' E 029°11'0 0.0
2014-Aug-20 08:25N 40°52' E 029°11'0 0.0
2014-Aug-20 07:31N 40°52' E 029°11'0 0.0
2014-Aug-20 06:18N 40°52' E 029°11'0 0.0
2014-Aug-20 05:30N 40°52' E 029°11'0 0.0
2014-Aug-20 04:30N 40°52' E 029°11'0 0.0
2014-Aug-20 03:30N 40°52' E 029°11'0 0.0
2014-Aug-20 02:30N 40°52' E 029°11'0 0.0
2014-Aug-20 01:24N 40°52' E 029°11'0 0.0
2014-Aug-20 00:30N 40°52' E 029°11'0 0.0
2014-Aug-19 23:30N 40°52' E 029°11'0 0.0
2014-Aug-19 22:30N 40°52' E 029°11'0 0.0
2014-Aug-19 21:18N 40°52' E 029°11'0 0.0
2014-Aug-19 20:30N 40°52' E 029°11'0 0.0
2014-Aug-19 19:12N 40°52' E 029°11'0 0.0
2014-Aug-19 18:06N 40°52' E 029°11'0 0.0
2014-Aug-19 17:30N 40°52' E 029°11'0 0.0
2014-Aug-19 16:24N 40°52' E 029°11'0 0.0
2014-Aug-19 15:30N 40°52' E 029°11'0 0.0
2014-Aug-19 14:24N 40°52' E 029°11'0 0.0
2014-Aug-19 13:30N 40°52' E 029°11'4 3.6
2014-Aug-19 12:32N 40°49' E 029°08'9 8.4
2014-Aug-19 11:31N 40°48' E 028°57'  
Track history (hours):
 
Tides and Currents Weather Stations Pressure Air Temp Water Temp Dewpoint Dewpoint Depression Visibility Wind Speed Wind Dir Waves Ship Positions

Lady Nur

Last reported at 2014-Aug-28 00:04 UTC. Time now 2014-Aug-29 14:24 UTC.
Position N 40°43' E 027°28'.

Length 82 m; draft 5.5 m.

Type: Cargo ship. MMSI: 373237000.

Date/timePositionNaut miles runAvg speedWind from/ knotsBaromVisibWave heightAir tempDewpointWater temp
2014-Aug-28 00:04N 40°43' E 027°28'5 8.6
2014-Aug-27 23:31N 40°45' E 027°33'63 7.7
2014-Aug-27 15:21N 40°58' E 028°55'0 0.0
2014-Aug-27 13:21N 40°58' E 028°55'0 0.0
2014-Aug-27 12:33N 40°58' E 028°55'0 0.0
2014-Aug-27 11:21N 40°58' E 028°55'0 0.0
2014-Aug-27 10:21N 40°58' E 028°55'0 0.0
2014-Aug-27 09:33N 40°58' E 028°55'0 0.0
2014-Aug-27 08:27N 40°58' E 028°55'0 0.0
2014-Aug-27 07:21N 40°58' E 028°55'0 0.0
2014-Aug-27 06:33N 40°58' E 028°55'0 0.0
2014-Aug-27 05:21N 40°58' E 028°55'0 0.0
2014-Aug-27 04:21N 40°58' E 028°55'0 0.0
2014-Aug-27 01:27N 40°58' E 028°55'0 0.0
2014-Aug-27 00:33N 40°58' E 028°55'3 2.1
2014-Aug-26 23:19N 40°59' E 028°58'  
2014-Aug-21 04:33N 40°59' E 029°00'4 4.4
2014-Aug-21 03:34N 40°55' E 029°04'7 6.7
2014-Aug-21 02:33N 40°52' E 029°11'0 0.1
2014-Aug-21 01:31N 40°52' E 029°11'0 0.0
2014-Aug-21 00:31N 40°52' E 029°11'0 0.0
2014-Aug-20 23:19N 40°52' E 029°11'0 0.0
2014-Aug-20 22:31N 40°52' E 029°11'0 0.0
2014-Aug-20 21:31N 40°52' E 029°11'0 0.0
2014-Aug-20 20:31N 40°52' E 029°11'0 0.0
2014-Aug-20 19:31N 40°52' E 029°11'0 0.0
2014-Aug-20 18:13N 40°52' E 029°11'0 0.0
2014-Aug-20 17:25N 40°52' E 029°11'0 0.0
2014-Aug-20 16:25N 40°52' E 029°11'0 0.0
2014-Aug-20 15:31N 40°52' E 029°11'0 0.1
2014-Aug-20 14:31N 40°52' E 029°12'0 0.0
2014-Aug-20 13:31N 40°52' E 029°12'0 0.0
2014-Aug-20 12:19N 40°52' E 029°12'0 0.0
2014-Aug-20 11:31N 40°52' E 029°12'0 0.0
2014-Aug-20 10:19N 40°52' E 029°11'0 0.0
2014-Aug-20 09:13N 40°52' E 029°11'0 0.0
2014-Aug-20 08:25N 40°52' E 029°11'0 0.0
2014-Aug-20 07:31N 40°52' E 029°11'0 0.0
2014-Aug-20 06:18N 40°52' E 029°11'0 0.0
2014-Aug-20 05:30N 40°52' E 029°11'0 0.0
2014-Aug-20 04:30N 40°52' E 029°11'0 0.0
2014-Aug-20 03:30N 40°52' E 029°11'0 0.0
2014-Aug-20 02:30N 40°52' E 029°11'0 0.0
2014-Aug-20 01:24N 40°52' E 029°11'0 0.0
2014-Aug-20 00:30N 40°52' E 029°11'0 0.0
2014-Aug-19 23:30N 40°52' E 029°11'0 0.0
2014-Aug-19 22:30N 40°52' E 029°11'0 0.0
2014-Aug-19 21:18N 40°52' E 029°11'0 0.0
2014-Aug-19 20:30N 40°52' E 029°11'0 0.0
2014-Aug-19 19:12N 40°52' E 029°11'0 0.0
2014-Aug-19 18:06N 40°52' E 029°11'0 0.0
2014-Aug-19 17:30N 40°52' E 029°11'0 0.0
2014-Aug-19 16:24N 40°52' E 029°11'0 0.0
2014-Aug-19 15:30N 40°52' E 029°11'0 0.0
2014-Aug-19 14:24N 40°52' E 029°11'0 0.0
2014-Aug-19 13:30N 40°52' E 029°11'4 3.6
2014-Aug-19 12:32N 40°49' E 029°08'9 8.4
2014-Aug-19 11:31N 40°48' E 028°57'  

Dump ship's entire track history